Terminal Aerodrome Forecast
Issued by NWS

Home | Current Version | Previous Version | Text Only | Print | Product List | Glossary On
Versions: 1 2 3 4 5 6 7 8 9 10 11 12 13
000
FTUS45 KGJT 240721 AAA
TAFMTJ
TAF AMD
KMTJ 240721Z 2407/2506 28010KT P6SM FEW003 SCT100 BKN120
     FM241200 18006KT P6SM BKN120
     FM241700 24006KT P6SM BKN150
     FM241900 24011G20KT P6SM BKN120
     FM242200 23017G28KT P6SM VCSH OVC100
     FM250200 22009KT P6SM OVC080=

USA.gov is the U.S. government's official web portal to all federal, state and local government web resources and services.